createdAt,value
2023-03-19T00:00:46.622Z,11.91
2023-03-19T00:01:49.192Z,11.70
2023-03-19T00:02:52.395Z,11.66
2023-03-19T00:03:55.469Z,11.47
2023-03-19T00:04:57.079Z,10.79
2023-03-19T00:05:59.658Z,10.92
2023-03-19T00:07:02.633Z,11.15
2023-03-19T00:08:05.567Z,10.83
2023-03-19T00:09:07.356Z,10.41
2023-03-19T00:10:10.534Z,10.36
2023-03-19T00:11:13.611Z,9.68
2023-03-19T00:12:16.236Z,9.81
2023-03-19T00:13:18.489Z,9.77
2023-03-19T00:14:21.349Z,9.77
2023-03-19T00:15:23.151Z,9.60
2023-03-19T00:16:25.844Z,9.54
2023-03-19T00:17:27.808Z,9.42
2023-03-19T00:18:30.696Z,9.61
2023-03-19T00:19:32.234Z,9.82
2023-03-19T00:20:35.120Z,9.96
2023-03-19T00:21:36.767Z,10.10
2023-03-19T00:22:40.889Z,10.41
2023-03-19T00:23:42.841Z,10.73
2023-03-19T00:24:45.652Z,10.94
2023-03-19T00:25:47.431Z,11.07
2023-03-19T00:26:50.100Z,11.24
2023-03-19T00:27:52.838Z,11.38
2023-03-19T00:28:56.148Z,11.44
2023-03-19T00:29:57.800Z,11.43
2023-03-19T00:31:08.549Z,11.59
2023-03-19T00:32:10.134Z,11.56
2023-03-19T00:33:13.120Z,11.50
2023-03-19T00:34:18.309Z,11.53
2023-03-19T00:35:20.827Z,11.53
2023-03-19T00:36:23.405Z,11.47
2023-03-19T00:37:26.071Z,11.51
2023-03-19T00:38:29.281Z,11.56
2023-03-19T00:39:32.236Z,11.59
2023-03-19T00:40:33.770Z,11.66
2023-03-19T00:41:36.334Z,11.63
2023-03-19T00:42:37.888Z,11.48
2023-03-19T00:43:41.187Z,11.45
2023-03-19T00:44:42.812Z,11.54
2023-03-19T00:45:45.438Z,11.43
2023-03-19T00:46:47.081Z,11.36
2023-03-19T00:47:49.659Z,11.41
2023-03-19T00:48:55.571Z,11.54
2023-03-19T00:49:58.087Z,11.71
2023-03-19T00:51:02.919Z,11.80
2023-03-19T00:52:05.935Z,11.77
2023-03-19T00:53:07.635Z,11.91
2023-03-19T00:54:14.820Z,11.87
2023-03-19T00:55:16.786Z,11.94
2023-03-19T00:56:20.151Z,11.85
2023-03-19T00:57:22.325Z,11.89
2023-03-19T00:58:25.081Z,11.73
2023-03-19T00:59:26.848Z,11.43
2023-03-19T01:00:29.731Z,11.68
2023-03-19T01:01:32.096Z,11.55
2023-03-19T01:02:34.631Z,11.15
2023-03-19T01:03:36.727Z,11.27
2023-03-19T01:04:39.549Z,11.48
2023-03-19T01:05:41.505Z,11.09
2023-03-19T01:06:44.104Z,10.45
2023-03-19T01:07:46.048Z,10.12
2023-03-19T01:08:48.897Z,10.55
2023-03-19T01:09:52.054Z,10.94
2023-03-19T01:10:54.847Z,11.11
2023-03-19T01:11:57.033Z,11.26
2023-03-19T01:12:59.495Z,11.48
2023-03-19T01:14:01.561Z,11.57
2023-03-19T01:15:06.970Z,11.45
2023-03-19T01:16:08.833Z,11.55
2023-03-19T01:17:11.427Z,11.28
2023-03-19T01:18:13.261Z,10.90
2023-03-19T01:19:16.404Z,10.97
2023-03-19T01:20:19.110Z,11.11
2023-03-19T01:21:22.387Z,11.41
2023-03-19T01:22:23.931Z,11.49
2023-03-19T01:23:26.478Z,11.61
2023-03-19T01:24:29.680Z,11.68
2023-03-19T01:25:34.257Z,11.67
2023-03-19T01:26:35.946Z,11.80
2023-03-19T01:27:38.475Z,11.99
2023-03-19T01:28:40.037Z,11.92
2023-03-19T01:29:42.732Z,11.82
2023-03-19T01:30:44.738Z,11.65
2023-03-19T01:31:47.244Z,11.04
2023-03-19T01:32:49.007Z,11.28
2023-03-19T01:33:52.701Z,11.59
2023-03-19T01:34:54.330Z,11.78
2023-03-19T01:35:58.031Z,11.87
2023-03-19T01:36:59.566Z,11.98
2023-03-19T01:38:05.065Z,12.03
2023-03-19T01:39:07.035Z,11.99
2023-03-19T01:40:13.282Z,12.13
2023-03-19T01:41:16.401Z,12.15
2023-03-19T01:42:19.180Z,12.20
2023-03-19T01:43:22.989Z,12.30
2023-03-19T01:44:27.706Z,12.43
2023-03-19T01:45:36.761Z,12.50
2023-03-19T01:46:40.376Z,12.51
2023-03-19T01:47:44.349Z,12.56
2023-03-19T01:48:50.891Z,12.61
2023-03-19T01:49:54.700Z,12.64
2023-03-19T01:50:58.943Z,12.69
2023-03-19T01:52:04.713Z,12.64
2023-03-19T01:53:09.074Z,12.69
2023-03-19T01:54:14.678Z,12.72
2023-03-19T01:55:17.341Z,12.68
2023-03-19T01:56:24.191Z,12.74
2023-03-19T01:57:27.172Z,12.78
2023-03-19T01:58:29.260Z,12.79
2023-03-19T01:59:35.771Z,12.74
2023-03-19T02:00:39.046Z,12.83
2023-03-19T02:01:48.142Z,12.86
2023-03-19T02:02:53.611Z,12.93
2023-03-19T02:03:57.286Z,12.88
2023-03-19T02:05:02.887Z,12.81
2023-03-19T02:06:06.384Z,12.83
2023-03-19T02:07:09.394Z,12.83
2023-03-19T02:08:16.038Z,12.86
2023-03-19T02:09:19.479Z,12.81
2023-03-19T02:10:23.703Z,12.81
2023-03-19T02:11:28.110Z,12.86
2023-03-19T02:12:29.656Z,12.83
2023-03-19T02:13:32.281Z,12.82
2023-03-19T02:14:34.098Z,12.83
2023-03-19T02:15:36.773Z,12.77
2023-03-19T02:16:38.359Z,12.74
2023-03-19T02:17:42.004Z,12.63
2023-03-19T02:18:44.620Z,12.53
2023-03-19T02:19:52.387Z,12.48
2023-03-19T02:21:01.171Z,12.24
2023-03-19T02:22:05.581Z,12.40
2023-03-19T02:23:14.385Z,12.52
2023-03-19T02:24:21.009Z,12.61
2023-03-19T02:25:31.006Z,12.64
2023-03-19T02:26:35.939Z,12.67
2023-03-19T02:27:37.948Z,12.72
2023-03-19T02:28:44.185Z,12.77
2023-03-19T02:29:46.062Z,12.82
2023-03-19T02:30:48.906Z,12.80
2023-03-19T02:31:50.884Z,12.19
2023-03-19T02:32:53.568Z,11.95
2023-03-19T02:33:59.509Z,12.15
2023-03-19T02:35:02.090Z,12.30
2023-03-19T02:36:06.389Z,12.34
2023-03-19T02:37:14.011Z,12.23
2023-03-19T02:38:16.089Z,12.25
2023-03-19T02:39:23.689Z,12.35
2023-03-19T02:40:30.108Z,11.58
2023-03-19T02:41:35.325Z,11.30
2023-03-19T02:42:37.205Z,10.62
2023-03-19T02:43:41.962Z,10.54
2023-03-19T02:44:43.529Z,10.72
2023-03-19T02:45:46.245Z,10.94
2023-03-19T02:46:47.859Z,11.02
2023-03-19T02:47:50.579Z,11.28
2023-03-19T02:48:52.602Z,11.46
2023-03-19T02:49:55.272Z,10.97
2023-03-19T02:50:57.047Z,10.28
2023-03-19T02:51:59.580Z,9.94
2023-03-19T02:53:01.274Z,10.09
2023-03-19T02:54:03.905Z,10.27
2023-03-19T02:55:06.636Z,10.72
2023-03-19T02:56:09.613Z,10.99
2023-03-19T02:57:12.712Z,11.05
2023-03-19T02:58:15.530Z,11.19
2023-03-19T02:59:17.065Z,11.13
2023-03-19T03:00:21.066Z,10.98
2023-03-19T03:01:23.034Z,10.85
2023-03-19T03:02:26.454Z,11.05
2023-03-19T03:03:28.148Z,10.83
2023-03-19T03:04:30.946Z,10.79
2023-03-19T03:05:33.100Z,11.00
2023-03-19T03:06:35.621Z,11.29
2023-03-19T03:07:37.689Z,11.34
2023-03-19T03:08:40.343Z,11.18
2023-03-19T03:09:42.093Z,11.18
2023-03-19T03:10:44.995Z,11.31
2023-03-19T03:11:47.133Z,11.19
2023-03-19T03:12:51.580Z,11.21
2023-03-19T03:13:53.340Z,11.20
2023-03-19T03:14:56.019Z,11.36
2023-03-19T03:15:57.654Z,11.34
2023-03-19T03:17:00.465Z,11.20
2023-03-19T03:18:02.050Z,11.36
2023-03-19T03:19:04.852Z,11.43
2023-03-19T03:20:08.209Z,11.25
2023-03-19T03:21:11.756Z,11.42
2023-03-19T03:22:13.252Z,11.32
2023-03-19T03:23:15.761Z,10.87
2023-03-19T03:24:17.305Z,10.73
2023-03-19T03:25:21.060Z,10.27
2023-03-19T03:26:22.631Z,10.44
2023-03-19T03:27:25.155Z,10.30
2023-03-19T03:28:28.152Z,10.23
2023-03-19T03:29:30.696Z,9.77
2023-03-19T03:30:32.804Z,9.84
2023-03-19T03:31:35.715Z,9.76
2023-03-19T03:32:38.959Z,9.79
2023-03-19T03:33:41.637Z,10.10
2023-03-19T03:34:43.512Z,10.46
2023-03-19T03:35:46.406Z,10.73
2023-03-19T03:36:47.946Z,10.89
2023-03-19T03:37:51.267Z,10.99
2023-03-19T03:38:53.690Z,11.00
2023-03-19T03:39:56.187Z,11.03
2023-03-19T03:40:57.659Z,11.09
2023-03-19T03:42:00.109Z,10.84
2023-03-19T03:43:02.426Z,10.79
2023-03-19T03:44:06.797Z,10.62
2023-03-19T03:45:10.677Z,10.09
2023-03-19T03:46:13.726Z,10.14
2023-03-19T03:47:15.385Z,9.81
2023-03-19T03:48:18.563Z,9.95
2023-03-19T03:49:20.516Z,10.22
2023-03-19T03:50:22.996Z,10.00
2023-03-19T03:51:26.126Z,9.43
2023-03-19T03:52:31.537Z,9.12
2023-03-19T03:53:34.134Z,8.95
2023-03-19T03:54:35.899Z,9.06
2023-03-19T03:55:38.715Z,8.72
2023-03-19T03:56:40.344Z,8.80
2023-03-19T03:57:42.840Z,8.95
2023-03-19T03:58:44.634Z,9.06
2023-03-19T03:59:48.439Z,8.81
2023-03-19T04:00:50.694Z,8.38
2023-03-19T04:01:53.262Z,8.05
2023-03-19T04:02:54.951Z,8.02
2023-03-19T04:03:57.904Z,8.09
2023-03-19T04:04:59.416Z,8.47
2023-03-19T04:06:01.993Z,8.61
2023-03-19T04:07:03.487Z,8.94
2023-03-19T04:08:08.690Z,9.18
2023-03-19T04:09:10.225Z,9.20
2023-03-19T04:10:14.040Z,8.68
2023-03-19T04:11:15.592Z,8.42
2023-03-19T04:12:18.138Z,8.29
2023-03-19T04:13:20.565Z,8.21
2023-03-19T04:14:23.025Z,8.59
2023-03-19T04:15:26.095Z,8.94
2023-03-19T04:16:29.299Z,9.21
2023-03-19T04:17:30.852Z,9.48
2023-03-19T04:18:33.560Z,9.56
2023-03-19T04:19:35.434Z,9.63
2023-03-19T04:20:38.020Z,9.72
2023-03-19T04:21:39.669Z,9.86
2023-03-19T04:22:42.139Z,9.21
2023-03-19T04:23:43.658Z,8.75
2023-03-19T04:24:46.430Z,8.80
2023-03-19T04:25:48.241Z,9.15
2023-03-19T04:26:51.124Z,9.36
2023-03-19T04:27:52.921Z,9.36
2023-03-19T04:28:55.739Z,9.56
2023-03-19T04:29:57.290Z,9.27
2023-03-19T04:31:02.054Z,8.85
2023-03-19T04:32:04.249Z,8.49
2023-03-19T04:33:06.974Z,8.44
2023-03-19T04:34:08.593Z,8.80
2023-03-19T04:35:11.981Z,9.01
2023-03-19T04:36:13.766Z,9.21
2023-03-19T04:37:16.277Z,9.42
2023-03-19T04:38:18.166Z,8.94
2023-03-19T04:39:20.921Z,8.67
2023-03-19T04:40:22.554Z,8.73
2023-03-19T04:41:26.037Z,8.88
2023-03-19T04:42:27.623Z,9.17
2023-03-19T04:43:30.149Z,8.60
2023-03-19T04:44:32.094Z,7.99
2023-03-19T04:45:34.864Z,7.77
2023-03-19T04:46:38.277Z,7.67
2023-03-19T04:47:40.760Z,7.66
2023-03-19T04:48:42.667Z,7.66
2023-03-19T04:49:45.286Z,7.59
2023-03-19T04:50:47.386Z,7.13
2023-03-19T04:51:50.001Z,6.84
2023-03-19T04:52:51.728Z,6.78
2023-03-19T04:53:54.886Z,6.73
2023-03-19T04:54:56.446Z,6.65
2023-03-19T04:55:58.948Z,6.63
2023-03-19T04:57:01.011Z,6.60
2023-03-19T04:58:03.869Z,6.60
2023-03-19T04:59:05.469Z,6.57
2023-03-19T05:00:09.812Z,6.58
2023-03-19T05:01:12.173Z,6.60
2023-03-19T05:02:16.085Z,6.63
2023-03-19T05:03:17.640Z,6.93
2023-03-19T05:04:20.640Z,6.96
2023-03-19T05:05:22.243Z,7.01
2023-03-19T05:06:24.708Z,6.99
2023-03-19T05:07:26.491Z,6.97
2023-03-19T05:08:29.026Z,7.11
2023-03-19T05:09:30.954Z,6.98
2023-03-19T05:10:34.778Z,6.94
2023-03-19T05:11:37.204Z,6.93
2023-03-19T05:12:40.063Z,6.94
2023-03-19T05:13:41.550Z,6.87
2023-03-19T05:14:44.105Z,7.23
2023-03-19T05:15:46.384Z,7.55
2023-03-19T05:16:48.955Z,7.75
2023-03-19T05:17:51.906Z,8.04
2023-03-19T05:18:54.429Z,8.29
2023-03-19T05:19:57.047Z,8.46
2023-03-19T05:20:59.839Z,8.60
2023-03-19T05:22:01.427Z,8.61
2023-03-19T05:23:04.511Z,8.76
2023-03-19T05:24:06.136Z,8.46
2023-03-19T05:25:09.743Z,7.82
2023-03-19T05:26:11.756Z,7.72
2023-03-19T05:27:14.506Z,7.59
2023-03-19T05:28:16.227Z,7.21
2023-03-19T05:29:18.748Z,6.93
2023-03-19T05:30:20.421Z,7.17
2023-03-19T05:31:23.677Z,7.26
2023-03-19T05:32:25.566Z,7.10
2023-03-19T05:33:29.472Z,7.28
2023-03-19T05:34:31.466Z,7.65
2023-03-19T05:35:34.728Z,7.91
2023-03-19T05:36:36.305Z,8.06
2023-03-19T05:37:38.754Z,8.17
2023-03-19T05:38:40.693Z,8.35
2023-03-19T05:39:43.245Z,8.51
2023-03-19T05:40:45.065Z,8.67
2023-03-19T05:41:47.754Z,8.81
2023-03-19T05:42:49.833Z,8.95
2023-03-19T05:43:52.285Z,9.04
2023-03-19T05:44:53.879Z,9.13
2023-03-19T05:45:56.932Z,9.23
2023-03-19T05:46:58.444Z,8.73
2023-03-19T05:48:00.963Z,7.99
2023-03-19T05:49:03.896Z,7.86
2023-03-19T05:50:07.131Z,8.01
2023-03-19T05:51:09.326Z,8.23
2023-03-19T05:52:12.099Z,8.58
2023-03-19T05:53:13.978Z,8.63
2023-03-19T05:54:16.554Z,8.69
2023-03-19T05:55:18.227Z,8.62
2023-03-19T05:56:20.860Z,8.42
2023-03-19T05:57:22.362Z,8.45
2023-03-19T05:58:25.176Z,8.72
2023-03-19T05:59:26.721Z,8.74
2023-03-19T06:00:29.242Z,8.95
2023-03-19T06:01:31.040Z,8.76
2023-03-19T06:02:34.101Z,8.32
2023-03-19T06:03:37.262Z,8.38
2023-03-19T06:04:40.231Z,8.76
2023-03-19T06:05:43.011Z,8.97
2023-03-19T06:06:44.567Z,9.10
2023-03-19T06:07:47.083Z,9.22
2023-03-19T06:08:49.034Z,9.22
2023-03-19T06:09:51.926Z,9.34
2023-03-19T06:10:53.866Z,8.92
2023-03-19T06:11:56.540Z,8.04
2023-03-19T06:12:58.151Z,7.54
2023-03-19T06:14:00.896Z,7.44
2023-03-19T06:15:02.722Z,7.37
2023-03-19T06:16:06.231Z,7.59
2023-03-19T06:17:09.260Z,7.97
2023-03-19T06:18:11.899Z,8.27
2023-03-19T06:19:13.422Z,8.53
2023-03-19T06:20:17.806Z,8.56
2023-03-19T06:21:20.751Z,8.47
2023-03-19T06:22:22.579Z,8.28
2023-03-19T06:23:25.085Z,8.14
2023-03-19T06:24:26.942Z,8.32
2023-03-19T06:25:29.524Z,8.31
2023-03-19T06:26:31.195Z,8.24
2023-03-19T06:27:33.691Z,8.37
2023-03-19T06:28:35.195Z,8.60
2023-03-19T06:29:37.839Z,8.83
2023-03-19T06:30:40.414Z,9.23
2023-03-19T06:31:41.956Z,9.48
2023-03-19T06:32:44.529Z,9.72
2023-03-19T06:33:46.065Z,9.79
2023-03-19T06:34:48.544Z,9.64
2023-03-19T06:35:51.516Z,9.69
2023-03-19T06:36:54.388Z,9.60
2023-03-19T06:37:56.025Z,9.56
2023-03-19T06:38:58.534Z,9.89
2023-03-19T06:40:00.353Z,9.98
2023-03-19T06:41:02.944Z,10.02
2023-03-19T06:42:04.857Z,10.02
2023-03-19T06:43:07.350Z,9.93
2023-03-19T06:44:08.898Z,10.05
2023-03-19T06:45:12.502Z,9.96
2023-03-19T06:46:14.162Z,10.04
2023-03-19T06:47:16.774Z,9.99
2023-03-19T06:48:18.906Z,9.92
2023-03-19T06:49:21.961Z,9.63
2023-03-19T06:50:23.583Z,9.62
2023-03-19T06:51:27.714Z,9.73
2023-03-19T06:52:29.297Z,10.07
2023-03-19T06:53:32.309Z,10.15
2023-03-19T06:54:33.856Z,10.35
2023-03-19T06:55:37.500Z,10.53
2023-03-19T06:56:40.017Z,10.86
2023-03-19T06:57:41.674Z,10.82
2023-03-19T06:58:44.187Z,10.63
2023-03-19T06:59:46.026Z,10.65
2023-03-19T07:00:48.748Z,10.80
2023-03-19T07:01:50.364Z,10.97
2023-03-19T07:02:52.914Z,11.14
2023-03-19T07:03:54.511Z,11.30
2023-03-19T07:04:57.468Z,11.51
2023-03-19T07:05:59.163Z,11.77
2023-03-19T07:07:05.339Z,11.89
2023-03-19T07:08:11.772Z,12.02
2023-03-19T07:09:14.520Z,11.75
2023-03-19T07:10:18.614Z,11.70
2023-03-19T07:11:21.153Z,11.96
2023-03-19T07:12:22.726Z,12.17
2023-03-19T07:13:25.583Z,12.31
2023-03-19T07:14:28.165Z,12.50
2023-03-19T07:15:29.917Z,12.56
2023-03-19T07:16:32.877Z,12.72
2023-03-19T07:17:34.600Z,12.61
2023-03-19T07:18:39.780Z,12.42
2023-03-19T07:19:42.340Z,12.59
2023-03-19T07:20:43.982Z,12.77
2023-03-19T07:21:46.774Z,12.90
2023-03-19T07:22:51.759Z,12.99
2023-03-19T07:23:54.312Z,12.85
2023-03-19T07:24:55.826Z,12.92
2023-03-19T07:25:58.571Z,13.02
2023-03-19T07:27:02.332Z,13.11
2023-03-19T07:28:04.448Z,13.24
2023-03-19T07:29:07.218Z,13.22
2023-03-19T07:30:10.056Z,13.41
2023-03-19T07:31:13.170Z,13.37
2023-03-19T07:32:15.143Z,13.31
2023-03-19T07:33:17.886Z,13.34
2023-03-19T07:34:19.390Z,13.31
2023-03-19T07:35:22.491Z,13.16
2023-03-19T07:36:24.100Z,13.03
2023-03-19T07:37:26.560Z,13.02
2023-03-19T07:38:30.467Z,13.03
2023-03-19T07:39:32.336Z,13.13
2023-03-19T07:40:35.192Z,13.34
2023-03-19T07:41:37.089Z,13.41
2023-03-19T07:42:40.065Z,13.35
2023-03-19T07:43:41.583Z,13.31
2023-03-19T07:44:44.086Z,13.32
2023-03-19T07:45:45.619Z,13.45
2023-03-19T07:46:48.083Z,13.50
2023-03-19T07:47:50.439Z,13.20
2023-03-19T07:48:56.317Z,13.28
2023-03-19T07:49:59.265Z,13.35
2023-03-19T07:51:01.855Z,13.41
2023-03-19T07:52:04.561Z,13.48
2023-03-19T07:53:06.445Z,13.59
2023-03-19T07:54:10.295Z,13.61
2023-03-19T07:55:11.834Z,13.61
2023-03-19T07:56:14.391Z,13.70
2023-03-19T07:57:16.598Z,13.73
2023-03-19T07:58:19.473Z,13.75
2023-03-19T07:59:22.181Z,13.88
2023-03-19T08:00:24.162Z,14.06
2023-03-19T08:01:27.082Z,13.99
2023-03-19T08:02:28.650Z,13.95
2023-03-19T08:03:31.307Z,13.89
2023-03-19T08:04:32.923Z,13.88
2023-03-19T08:05:35.488Z,13.93
2023-03-19T08:06:38.648Z,13.87
2023-03-19T08:07:41.330Z,13.31
2023-03-19T08:08:44.060Z,13.46
2023-03-19T08:09:47.115Z,13.60
2023-03-19T08:10:52.674Z,13.53
2023-03-19T08:11:54.222Z,12.97
2023-03-19T08:12:56.739Z,13.19
2023-03-19T08:13:58.285Z,13.24
2023-03-19T08:15:01.216Z,13.45
2023-03-19T08:16:02.973Z,13.33
2023-03-19T08:17:05.700Z,13.34
2023-03-19T08:18:07.646Z,13.02
2023-03-19T08:19:10.096Z,13.27
2023-03-19T08:20:14.331Z,13.60
2023-03-19T08:21:16.949Z,13.68
2023-03-19T08:22:18.730Z,13.73
2023-03-19T08:23:21.197Z,13.86
2023-03-19T08:24:23.097Z,13.82
2023-03-19T08:25:27.439Z,14.01
2023-03-19T08:26:29.938Z,14.13
2023-03-19T08:27:31.599Z,14.12
2023-03-19T08:28:34.198Z,14.36
2023-03-19T08:29:36.027Z,14.44
2023-03-19T08:30:38.827Z,13.99
2023-03-19T08:31:40.755Z,13.85
2023-03-19T08:32:44.848Z,13.22
2023-03-19T08:33:47.106Z,13.45
2023-03-19T08:34:49.887Z,13.40
2023-03-19T08:35:53.006Z,13.58
2023-03-19T08:36:54.908Z,13.50
2023-03-19T08:37:57.699Z,13.57
2023-03-19T08:38:59.564Z,13.71
2023-03-19T08:40:02.083Z,13.95
2023-03-19T08:41:06.348Z,14.14
2023-03-19T08:42:08.849Z,14.27
2023-03-19T08:43:11.314Z,14.33
2023-03-19T08:44:13.090Z,14.37
2023-03-19T08:45:17.090Z,14.58
2023-03-19T08:46:18.937Z,14.74
2023-03-19T08:47:24.371Z,14.56
2023-03-19T08:48:27.089Z,14.63
2023-03-19T08:49:28.647Z,14.79
2023-03-19T08:50:31.151Z,14.78
2023-03-19T08:51:32.763Z,14.79
2023-03-19T08:52:35.700Z,14.90
2023-03-19T08:53:38.631Z,14.96
2023-03-19T08:54:41.100Z,15.14
2023-03-19T08:55:43.996Z,15.22
2023-03-19T08:56:48.060Z,15.21
2023-03-19T08:57:49.579Z,15.14
2023-03-19T08:58:54.785Z,14.76
2023-03-19T08:59:56.358Z,14.58
2023-03-19T09:01:02.951Z,14.03
2023-03-19T09:02:05.927Z,13.98
2023-03-19T09:03:07.625Z,13.67
2023-03-19T09:04:10.150Z,13.37
2023-03-19T09:05:11.751Z,13.46
2023-03-19T09:06:15.694Z,13.45
2023-03-19T09:07:17.410Z,13.86
2023-03-19T09:08:20.377Z,13.80
2023-03-19T09:09:24.621Z,13.79
2023-03-19T09:10:27.327Z,13.76
2023-03-19T09:11:29.887Z,13.76
2023-03-19T09:12:33.945Z,14.05
2023-03-19T09:13:36.688Z,14.31
2023-03-19T09:14:39.868Z,14.23
2023-03-19T09:15:42.570Z,14.35
2023-03-19T09:16:44.138Z,14.43
2023-03-19T09:17:46.844Z,14.70
2023-03-19T09:18:48.617Z,15.03
2023-03-19T09:19:51.161Z,15.12
2023-03-19T09:20:53.835Z,15.26
2023-03-19T09:21:56.572Z,15.44
2023-03-19T09:22:58.118Z,15.43
2023-03-19T09:24:00.914Z,15.70
2023-03-19T09:25:02.804Z,15.82
2023-03-19T09:26:05.724Z,15.66
2023-03-19T09:27:07.399Z,15.59
2023-03-19T09:28:11.342Z,15.22
2023-03-19T09:29:13.134Z,14.87
2023-03-19T09:30:15.982Z,14.58
2023-03-19T09:31:17.855Z,14.04
2023-03-19T09:32:20.970Z,13.69
2023-03-19T09:33:22.619Z,13.39
2023-03-19T09:34:25.782Z,13.40
2023-03-19T09:35:31.330Z,13.56
2023-03-19T09:36:34.586Z,13.88
2023-03-19T09:37:36.741Z,14.21
2023-03-19T09:38:39.578Z,14.75
2023-03-19T09:39:42.253Z,15.27
2023-03-19T09:40:47.218Z,15.63
2023-03-19T09:42:03.888Z,15.89
2023-03-19T09:43:26.315Z,16.16
2023-03-19T09:44:31.679Z,16.41
2023-03-19T09:45:33.594Z,16.43
2023-03-19T09:46:43.395Z,16.16
2023-03-19T09:47:46.627Z,16.11
2023-03-19T09:48:55.093Z,16.19
2023-03-19T09:50:01.282Z,16.37
2023-03-19T09:51:06.688Z,16.45
2023-03-19T09:52:22.446Z,16.58
2023-03-19T09:53:35.644Z,16.59
2023-03-19T09:54:43.750Z,16.81
2023-03-19T09:55:49.776Z,16.93
2023-03-19T09:56:51.439Z,16.64
2023-03-19T09:57:55.841Z,16.90
2023-03-19T09:58:59.272Z,17.03
2023-03-19T10:00:01.808Z,17.15
2023-03-19T10:01:04.326Z,17.19
2023-03-19T10:02:28.887Z,17.25
2023-03-19T10:03:44.451Z,17.12
2023-03-19T10:05:01.171Z,17.12
2023-03-19T10:06:20.651Z,17.48
2023-03-19T10:07:36.793Z,17.26
2023-03-19T10:08:55.728Z,17.51
2023-03-19T10:10:14.025Z,17.43
2023-03-19T10:11:35.478Z,17.37
2023-03-19T10:12:48.806Z,17.33
2023-03-19T10:14:03.198Z,17.39
2023-03-19T10:15:18.219Z,17.37
2023-03-19T10:16:25.020Z,17.41
2023-03-19T10:17:30.591Z,17.59
2023-03-19T10:18:36.248Z,17.60
2023-03-19T10:19:45.593Z,17.60
2023-03-19T10:20:53.110Z,17.66
2023-03-19T10:22:01.049Z,17.73
2023-03-19T10:23:15.617Z,17.71
2023-03-19T10:24:24.002Z,17.40
2023-03-19T10:25:28.551Z,17.40
2023-03-19T10:26:35.526Z,17.62
2023-03-19T10:27:37.661Z,17.53
2023-03-19T10:28:43.774Z,17.60
2023-03-19T10:29:46.659Z,17.64
2023-03-19T10:30:58.228Z,17.49
2023-03-19T10:32:07.597Z,17.41
2023-03-19T10:33:22.998Z,17.29
2023-03-19T10:34:31.468Z,17.29
2023-03-19T10:35:42.859Z,17.23
2023-03-19T10:36:44.400Z,17.17
2023-03-19T10:37:48.312Z,17.42
2023-03-19T10:38:50.799Z,17.70
2023-03-19T10:39:56.775Z,17.70
2023-03-19T10:41:11.456Z,17.62
2023-03-19T10:42:28.119Z,17.66
2023-03-19T10:43:31.054Z,17.21
2023-03-19T10:44:38.305Z,17.11
2023-03-19T10:45:42.459Z,16.87
2023-03-19T10:46:46.629Z,17.12
2023-03-19T10:47:56.118Z,17.45
2023-03-19T10:48:58.699Z,17.49
2023-03-19T10:50:04.624Z,17.48
2023-03-19T10:51:06.646Z,17.31
2023-03-19T10:52:20.986Z,17.48
2023-03-19T10:53:32.188Z,17.61
2023-03-19T10:54:34.727Z,17.37
2023-03-19T10:55:37.469Z,17.55
2023-03-19T10:56:47.884Z,17.32
2023-03-19T10:58:02.436Z,17.57
2023-03-19T10:59:07.338Z,17.49
2023-03-19T11:00:18.295Z,17.17
2023-03-19T11:01:21.397Z,17.07
2023-03-19T11:02:27.914Z,17.18
2023-03-19T11:03:33.400Z,17.00
2023-03-19T11:04:35.979Z,16.89
2023-03-19T11:05:38.080Z,16.84
2023-03-19T11:06:41.254Z,16.87
2023-03-19T11:07:43.861Z,16.44
2023-03-19T11:08:55.441Z,16.42
2023-03-19T11:09:58.441Z,16.39
2023-03-19T11:11:00.224Z,16.30
2023-03-19T11:12:09.470Z,16.11
2023-03-19T11:13:21.804Z,16.11
2023-03-19T11:14:30.729Z,16.19
2023-03-19T11:15:36.533Z,16.13
2023-03-19T11:16:53.176Z,16.28
2023-03-19T11:17:59.439Z,16.18
2023-03-19T11:19:02.036Z,16.07
2023-03-19T11:20:20.388Z,15.93
2023-03-19T11:21:24.799Z,16.21
2023-03-19T11:22:31.740Z,16.49
2023-03-19T11:23:39.669Z,16.18
2023-03-19T11:24:49.096Z,16.33
2023-03-19T11:25:53.966Z,16.50
2023-03-19T11:26:57.026Z,16.67
2023-03-19T11:28:01.981Z,16.07
2023-03-19T11:29:04.622Z,15.85
2023-03-19T11:30:15.364Z,15.80
2023-03-19T11:31:21.704Z,15.79
2023-03-19T11:32:41.386Z,15.97
2023-03-19T11:34:00.372Z,15.80
2023-03-19T11:35:09.516Z,15.73
2023-03-19T11:36:16.668Z,15.34
2023-03-19T11:37:29.325Z,15.33
2023-03-19T11:38:43.723Z,15.45
2023-03-19T11:39:58.751Z,15.51
2023-03-19T11:41:12.010Z,15.45
2023-03-19T11:42:46.179Z,15.56
2023-03-19T11:43:55.962Z,15.19
2023-03-19T11:45:10.072Z,15.26
2023-03-19T11:46:27.923Z,15.14
2023-03-19T11:47:40.945Z,14.73
2023-03-19T11:48:58.632Z,14.78
2023-03-19T11:50:18.065Z,14.75
2023-03-19T11:51:27.268Z,14.56
2023-03-19T11:52:39.108Z,14.41
2023-03-19T11:53:56.391Z,14.50
2023-03-19T11:55:12.225Z,14.47
2023-03-19T11:56:22.019Z,14.50
2023-03-19T11:57:35.590Z,14.52
2023-03-19T11:59:18.906Z,14.26
2023-03-19T12:00:31.392Z,14.24
2023-03-19T12:01:55.405Z,14.17
2023-03-19T12:03:44.972Z,13.88
2023-03-19T12:04:58.513Z,13.89
2023-03-19T12:06:07.422Z,13.80
2023-03-19T12:07:24.633Z,13.70
2023-03-19T12:08:39.451Z,13.62
2023-03-19T12:09:52.015Z,13.35
2023-03-19T12:11:04.445Z,13.48
2023-03-19T12:12:18.514Z,13.54
2023-03-19T12:13:32.504Z,13.47
2023-03-19T12:14:50.392Z,13.37
2023-03-19T12:16:01.317Z,13.31
2023-03-19T12:17:44.417Z,13.21
2023-03-19T12:19:12.016Z,13.25
2023-03-19T12:20:24.928Z,13.20
2023-03-19T12:21:36.218Z,13.30
2023-03-19T12:22:51.018Z,13.19
2023-03-19T12:24:04.292Z,13.37
2023-03-19T12:25:25.694Z,13.49
2023-03-19T12:26:40.535Z,13.36
2023-03-19T12:27:47.688Z,13.34
2023-03-19T12:28:58.118Z,13.43
2023-03-19T12:30:03.841Z,13.31
2023-03-19T12:31:34.235Z,13.36
2023-03-19T12:32:51.586Z,13.34
2023-03-19T12:34:12.634Z,13.23
2023-03-19T12:35:19.834Z,13.22
2023-03-19T12:36:27.019Z,13.26
2023-03-19T12:37:32.491Z,13.41
2023-03-19T12:38:40.277Z,13.32
2023-03-19T12:39:53.240Z,13.38
2023-03-19T12:41:01.074Z,13.32
2023-03-19T12:42:06.714Z,13.18
2023-03-19T12:43:18.139Z,13.28
2023-03-19T12:44:24.290Z,13.47
2023-03-19T12:45:31.363Z,13.42
2023-03-19T12:46:37.778Z,13.48
2023-03-19T12:47:41.582Z,13.66
2023-03-19T12:48:49.377Z,13.65
2023-03-19T12:49:56.986Z,13.82
2023-03-19T12:51:06.586Z,13.65
2023-03-19T12:52:19.155Z,13.73
2023-03-19T12:53:31.100Z,13.84
2023-03-19T12:54:39.300Z,13.94
2023-03-19T12:55:44.986Z,14.03
2023-03-19T12:56:53.549Z,14.11
2023-03-19T12:57:58.834Z,14.06
2023-03-19T12:59:09.852Z,13.89
2023-03-19T13:00:18.730Z,13.70
2023-03-19T13:01:26.354Z,13.83
2023-03-19T13:02:34.275Z,14.00
2023-03-19T13:03:44.567Z,14.19
2023-03-19T13:04:51.208Z,14.43
2023-03-19T13:06:00.786Z,14.62
2023-03-19T13:07:06.373Z,14.79
2023-03-19T13:08:17.205Z,14.91
2023-03-19T13:09:27.032Z,14.93
2023-03-19T13:10:31.496Z,15.12
2023-03-19T13:11:45.625Z,14.95
2023-03-19T13:12:48.744Z,14.62
2023-03-19T13:13:57.225Z,14.51
2023-03-19T13:15:06.339Z,14.39
2023-03-19T13:16:19.703Z,14.38
2023-03-19T13:17:28.684Z,14.50
2023-03-19T13:18:38.985Z,14.63
2023-03-19T13:19:46.024Z,14.63
2023-03-19T13:21:07.183Z,14.80
2023-03-19T13:22:13.641Z,14.79
2023-03-19T13:23:25.453Z,14.80
2023-03-19T13:24:30.913Z,14.83
2023-03-19T13:25:38.274Z,14.69
2023-03-19T13:26:41.405Z,14.53
2023-03-19T13:27:43.146Z,14.42
2023-03-19T13:29:00.056Z,14.66
2023-03-19T13:30:17.751Z,14.80
2023-03-19T13:31:21.839Z,14.41
2023-03-19T13:32:27.826Z,14.44
2023-03-19T13:33:31.905Z,14.58
2023-03-19T13:34:35.478Z,14.48
2023-03-19T13:35:43.538Z,14.35
2023-03-19T13:36:51.925Z,14.34
2023-03-19T13:38:03.060Z,14.50
2023-03-19T13:39:12.331Z,14.35
2023-03-19T13:40:40.538Z,14.26
2023-03-19T13:41:49.088Z,13.78
2023-03-19T13:42:57.903Z,13.96
2023-03-19T13:44:01.822Z,13.95
2023-03-19T13:45:04.917Z,14.22
2023-03-19T13:46:32.006Z,14.50
2023-03-19T13:47:42.561Z,14.42
2023-03-19T13:48:51.337Z,14.62
2023-03-19T13:50:27.560Z,14.72
2023-03-19T13:51:29.783Z,14.73
2023-03-19T13:52:49.303Z,14.72
2023-03-19T13:53:57.046Z,14.67
2023-03-19T13:55:28.132Z,14.57
2023-03-19T13:56:30.917Z,14.64
2023-03-19T13:57:35.580Z,14.71
2023-03-19T13:58:52.451Z,14.83
2023-03-19T13:59:53.992Z,14.52
2023-03-19T14:03:53.723Z,14.78
2023-03-19T14:05:01.999Z,14.81
2023-03-19T14:06:04.447Z,14.72
2023-03-19T14:07:14.133Z,14.79